createdAt,value
2017-09-19T00:01:12.603Z,89.29
2017-09-19T00:03:40.954Z,89.03
2017-09-19T00:06:09.275Z,89.29
2017-09-19T00:08:37.604Z,88.97
2017-09-19T00:11:05.946Z,88.51
2017-09-19T00:13:35.038Z,88.00
2017-09-19T00:16:03.389Z,87.77
2017-09-19T00:18:31.717Z,87.34
2017-09-19T00:21:00.839Z,88.35
2017-09-19T00:23:29.158Z,88.07
2017-09-19T00:25:57.482Z,88.09
2017-09-19T00:28:25.827Z,88.05
2017-09-19T00:30:54.150Z,87.68
2017-09-19T00:33:22.473Z,88.08
2017-09-19T00:35:50.825Z,88.44
2017-09-19T00:38:19.151Z,89.54
2017-09-19T00:40:47.584Z,89.29
2017-09-19T00:43:15.928Z,89.29
2017-09-19T00:45:45.011Z,89.09
2017-09-19T00:48:13.335Z,88.97
2017-09-19T00:50:41.686Z,89.13
2017-09-19T00:53:10.774Z,88.93
2017-09-19T00:55:39.888Z,88.90
2017-09-19T00:58:08.979Z,89.19
2017-09-19T01:00:38.066Z,88.79
2017-09-19T01:03:07.177Z,89.08
2017-09-19T01:05:36.262Z,89.22
2017-09-19T01:08:05.378Z,89.14
2017-09-19T01:10:34.466Z,88.94
2017-09-19T01:13:03.550Z,88.24
2017-09-19T01:15:31.910Z,88.51
2017-09-19T01:18:00.234Z,88.29
2017-09-19T01:20:29.318Z,89.28
2017-09-19T01:22:58.434Z,89.63
2017-09-19T01:25:26.762Z,88.77
2017-09-19T01:27:55.078Z,89.44
2017-09-19T01:30:24.198Z,89.60
2017-09-19T01:32:52.523Z,89.61
2017-09-19T01:35:20.842Z,89.92
2017-09-19T01:37:49.951Z,89.67
2017-09-19T01:40:18.282Z,89.68
2017-09-19T01:42:46.601Z,90.06
2017-09-19T01:45:15.722Z,89.49
2017-09-19T01:47:44.050Z,90.06
2017-09-19T01:50:12.375Z,89.75
2017-09-19T01:52:40.725Z,89.54
2017-09-19T01:55:09.825Z,89.02
2017-09-19T01:57:38.915Z,88.71
2017-09-19T02:00:08.038Z,88.40
2017-09-19T02:02:36.361Z,88.30
2017-09-19T02:05:04.683Z,87.94
2017-09-19T02:07:33.797Z,87.79
2017-09-19T02:10:02.115Z,88.21
2017-09-19T02:12:30.447Z,89.30
2017-09-19T02:14:59.562Z,88.55
2017-09-19T02:17:27.882Z,88.28
2017-09-19T02:19:56.206Z,88.26
2017-09-19T02:22:25.320Z,88.33
2017-09-19T02:24:53.642Z,88.48
2017-09-19T02:27:21.962Z,88.27
2017-09-19T02:29:51.090Z,88.17
2017-09-19T02:32:19.471Z,88.60
2017-09-19T02:34:47.800Z,89.48
2017-09-19T02:37:16.146Z,89.29
2017-09-19T02:39:44.473Z,89.45
2017-09-19T02:42:13.590Z,89.68
2017-09-19T02:44:41.915Z,89.94
2017-09-19T02:47:10.234Z,89.51
2017-09-19T02:49:39.353Z,89.60
2017-09-19T02:52:07.674Z,89.96
2017-09-19T02:54:36.005Z,89.75
2017-09-19T02:57:04.351Z,90.16
2017-09-19T02:59:32.670Z,89.81
2017-09-19T03:02:01.017Z,89.68
2017-09-19T03:04:30.164Z,89.13
2017-09-19T03:06:58.511Z,89.08
2017-09-19T03:09:27.602Z,89.21
2017-09-19T03:11:56.685Z,88.83
2017-09-19T03:14:25.037Z,88.70
2017-09-19T03:16:54.283Z,89.09
2017-09-19T03:19:23.395Z,89.11
2017-09-19T03:21:51.722Z,89.00
2017-09-19T03:24:20.047Z,88.74
2017-09-19T03:26:49.158Z,88.53
2017-09-19T03:29:17.483Z,88.50
2017-09-19T03:31:45.835Z,88.20
2017-09-19T03:34:14.166Z,88.22
2017-09-19T03:36:42.489Z,88.53
2017-09-19T03:39:10.838Z,88.73
2017-09-19T03:41:39.930Z,88.72
2017-09-19T03:44:09.042Z,89.19
2017-09-19T03:46:38.131Z,89.03
2017-09-19T03:49:07.240Z,89.80
2017-09-19T03:51:36.330Z,89.87
2017-09-19T03:54:05.443Z,89.55
2017-09-19T03:56:33.765Z,89.77
2017-09-19T03:59:02.086Z,90.38
2017-09-19T04:01:31.203Z,90.14
2017-09-19T04:03:59.530Z,89.91
2017-09-19T04:06:27.854Z,90.16
2017-09-19T04:08:57.446Z,89.65
2017-09-19T04:11:26.534Z,89.99
2017-09-19T04:13:54.886Z,89.88
2017-09-19T04:16:23.989Z,89.47
2017-09-19T04:18:52.314Z,90.13
2017-09-19T04:21:21.430Z,89.62
2017-09-19T04:23:49.788Z,90.00
2017-09-19T04:26:18.884Z,89.91
2017-09-19T04:28:47.978Z,89.67
2017-09-19T04:31:17.094Z,89.90
2017-09-19T04:33:45.426Z,90.44
2017-09-19T04:36:13.742Z,89.74
2017-09-19T04:38:42.862Z,90.22
2017-09-19T04:41:11.187Z,90.10
2017-09-19T04:43:39.534Z,89.42
2017-09-19T04:46:07.858Z,88.91
2017-09-19T04:48:36.206Z,88.97
2017-09-19T04:51:04.530Z,89.21
2017-09-19T04:53:33.623Z,88.94
2017-09-19T04:56:02.742Z,88.33
2017-09-19T04:58:31.066Z,89.60
2017-09-19T05:00:59.418Z,89.30
2017-09-19T05:03:27.742Z,89.95
2017-09-19T05:05:56.091Z,90.83
2017-09-19T05:08:24.425Z,90.35
2017-09-19T05:10:53.512Z,89.91
2017-09-19T05:13:21.866Z,91.15
2017-09-19T05:15:50.190Z,91.19
2017-09-19T05:18:19.282Z,91.08
2017-09-19T05:20:48.394Z,91.70
2017-09-19T05:23:18.546Z,91.04
2017-09-19T05:25:47.415Z,91.24
2017-09-19T05:28:15.771Z,90.56
2017-09-19T05:30:44.863Z,90.47
2017-09-19T05:33:13.186Z,89.70
2017-09-19T05:35:41.539Z,89.54
2017-09-19T05:38:10.634Z,90.31
2017-09-19T05:40:39.728Z,90.01
2017-09-19T05:43:08.842Z,90.33
2017-09-19T05:45:37.167Z,90.13
2017-09-19T05:48:05.498Z,89.83
2017-09-19T05:50:34.610Z,89.60
2017-09-19T05:53:02.934Z,89.18
2017-09-19T05:55:31.251Z,90.21
2017-09-19T05:57:59.611Z,88.64
2017-09-19T06:00:27.937Z,88.17
2017-09-19T06:02:56.263Z,88.09
2017-09-19T06:05:26.119Z,87.56
2017-09-19T06:07:54.445Z,88.39
2017-09-19T06:10:22.771Z,88.60
2017-09-19T06:12:51.887Z,88.90
2017-09-19T06:15:20.208Z,89.42
2017-09-19T06:17:48.530Z,89.32
2017-09-19T06:20:16.877Z,88.86
2017-09-19T06:22:45.210Z,88.65
2017-09-19T06:25:13.535Z,88.88
2017-09-19T06:27:41.882Z,88.10
2017-09-19T06:30:10.199Z,88.51
2017-09-19T06:32:38.529Z,89.31
2017-09-19T06:35:06.887Z,88.40
2017-09-19T06:37:35.215Z,88.18
2017-09-19T06:40:03.538Z,88.20
2017-09-19T06:42:32.662Z,87.96
2017-09-19T06:45:00.987Z,88.57
2017-09-19T06:47:29.303Z,88.13
2017-09-19T06:49:57.658Z,87.60
2017-09-19T06:52:25.983Z,87.70
2017-09-19T06:54:54.299Z,86.72
2017-09-19T06:57:22.652Z,86.95
2017-09-19T06:59:50.978Z,87.08
2017-09-19T07:02:19.306Z,87.01
2017-09-19T07:04:47.653Z,86.04
2017-09-19T07:07:16.749Z,85.80
2017-09-19T07:09:45.838Z,85.44
2017-09-19T07:12:14.951Z,85.21
2017-09-19T07:14:44.032Z,85.24
2017-09-19T07:17:13.120Z,85.30
2017-09-19T07:19:41.470Z,84.99
2017-09-19T07:22:09.786Z,84.42
2017-09-19T07:24:38.108Z,85.44
2017-09-19T07:27:06.458Z,85.93
2017-09-19T07:29:35.546Z,85.36
2017-09-19T07:32:03.973Z,84.83
2017-09-19T07:34:32.314Z,85.55
2017-09-19T07:37:02.426Z,86.27
2017-09-19T07:39:30.752Z,84.96
2017-09-19T07:41:59.091Z,85.67
2017-09-19T07:44:28.178Z,86.17
2017-09-19T07:46:56.498Z,85.51
2017-09-19T07:49:24.850Z,84.76
2017-09-19T07:51:53.938Z,83.81
2017-09-19T07:54:22.263Z,84.60
2017-09-19T07:56:50.614Z,84.27
2017-09-19T07:59:19.701Z,84.83
2017-09-19T08:01:48.803Z,85.21
2017-09-19T08:04:17.914Z,84.92
2017-09-19T08:06:47.002Z,85.96
2017-09-19T08:09:16.086Z,86.42
2017-09-19T08:11:44.434Z,84.88
2017-09-19T08:14:12.755Z,85.39
2017-09-19T08:16:41.842Z,84.84
2017-09-19T08:19:10.186Z,84.00
2017-09-19T08:21:38.507Z,83.69
2017-09-19T08:24:07.652Z,84.06
2017-09-19T08:26:35.992Z,84.35
2017-09-19T08:29:05.082Z,84.76
2017-09-19T08:31:33.405Z,83.67
2017-09-19T08:34:01.755Z,83.95
2017-09-19T08:36:30.835Z,84.61
2017-09-19T08:38:59.150Z,83.12
2017-09-19T08:41:27.497Z,82.59
2017-09-19T08:43:56.623Z,81.93
2017-09-19T08:46:24.950Z,81.42
2017-09-19T08:48:53.299Z,81.64
2017-09-19T08:51:21.624Z,80.55
2017-09-19T08:53:49.942Z,81.02
2017-09-19T08:56:18.282Z,80.60
2017-09-19T08:58:46.610Z,81.06
2017-09-19T09:01:14.928Z,79.95
2017-09-19T09:03:43.281Z,79.30
2017-09-19T09:06:11.598Z,77.82
2017-09-19T09:08:39.946Z,77.69
2017-09-19T09:11:08.262Z,76.37
2017-09-19T09:13:36.579Z,75.59
2017-09-19T09:16:04.918Z,72.73
2017-09-19T09:18:33.238Z,72.11
2017-09-19T09:21:01.560Z,73.63
2017-09-19T09:23:29.915Z,73.57
2017-09-19T09:25:58.230Z,72.39
2017-09-19T09:28:26.554Z,75.26
2017-09-19T09:30:55.663Z,75.27
2017-09-19T09:33:23.986Z,73.13
2017-09-19T09:35:52.303Z,70.74
2017-09-19T09:38:21.410Z,70.38
2017-09-19T09:40:50.491Z,68.44
2017-09-19T09:43:19.605Z,69.37
2017-09-19T09:45:48.687Z,72.00
2017-09-19T09:48:17.776Z,71.28
2017-09-19T09:50:46.123Z,72.76
2017-09-19T09:53:14.443Z,73.87
2017-09-19T09:55:43.530Z,75.21
2017-09-19T10:00:39.502Z,75.46
2017-09-19T10:03:07.823Z,75.04
2017-09-19T10:05:36.170Z,77.04
2017-09-19T10:08:04.488Z,77.90
2017-09-19T10:10:32.814Z,78.55
2017-09-19T10:13:01.937Z,80.05
2017-09-19T10:15:30.263Z,80.86
2017-09-19T10:17:58.583Z,80.39
2017-09-19T10:20:26.922Z,81.05
2017-09-19T10:22:55.261Z,81.56
2017-09-19T10:25:23.579Z,81.42
2017-09-19T10:27:51.926Z,82.05
2017-09-19T10:30:20.242Z,81.04
2017-09-19T10:32:48.568Z,81.64
2017-09-19T10:35:16.910Z,81.51
2017-09-19T10:37:45.231Z,80.25
2017-09-19T10:40:13.554Z,79.17
2017-09-19T10:42:41.907Z,78.84
2017-09-19T10:45:11.465Z,78.72
2017-09-19T10:47:39.780Z,79.11
2017-09-19T10:50:08.126Z,78.98
2017-09-19T10:52:37.212Z,77.17
2017-09-19T10:55:05.538Z,79.06
2017-09-19T10:57:33.883Z,77.76
2017-09-19T11:00:02.970Z,75.09
2017-09-19T11:02:31.301Z,76.66
2017-09-19T11:04:59.646Z,76.57
2017-09-19T11:07:28.734Z,76.27
2017-09-19T11:09:57.059Z,77.22
2017-09-19T11:12:25.406Z,75.93
2017-09-19T11:14:54.499Z,74.43
2017-09-19T11:17:23.585Z,74.59
2017-09-19T11:19:51.926Z,71.61
2017-09-19T11:22:20.243Z,71.26
2017-09-19T11:24:48.570Z,71.43
2017-09-19T11:27:16.921Z,71.60
2017-09-19T11:29:46.002Z,69.88
2017-09-19T11:32:14.324Z,67.61
2017-09-19T11:34:42.669Z,70.02
2017-09-19T11:37:11.760Z,70.72
2017-09-19T11:39:40.091Z,71.25
2017-09-19T11:42:08.438Z,68.55
2017-09-19T11:44:37.525Z,67.74
2017-09-19T11:47:06.634Z,66.58
2017-09-19T11:49:35.756Z,68.28
2017-09-19T11:52:04.078Z,68.81
2017-09-19T11:54:32.398Z,66.46
2017-09-19T11:57:00.760Z,67.51
2017-09-19T11:59:29.850Z,67.81
2017-09-19T12:01:58.172Z,66.55
2017-09-19T12:04:26.521Z,64.53
2017-09-19T12:06:55.602Z,65.87
2017-09-19T12:09:23.921Z,60.97
2017-09-19T12:11:52.266Z,62.40
2017-09-19T12:14:20.600Z,59.92
2017-09-19T12:16:48.921Z,60.42
2017-09-19T12:19:18.373Z,62.06
2017-09-19T12:21:46.691Z,54.97
2017-09-19T12:24:15.018Z,57.21
2017-09-19T12:26:43.370Z,54.53
2017-09-19T12:29:11.698Z,56.64
2017-09-19T12:31:40.018Z,61.56
2017-09-19T12:34:08.368Z,65.71
2017-09-19T12:36:36.682Z,67.77
2017-09-19T12:39:05.017Z,68.17
2017-09-19T12:41:33.362Z,70.47
2017-09-19T12:44:02.466Z,71.56
2017-09-19T12:46:31.548Z,70.59
2017-09-19T12:49:00.638Z,69.44
2017-09-19T12:51:28.987Z,69.35
2017-09-19T12:53:57.335Z,68.20
2017-09-19T12:56:25.655Z,69.32
2017-09-19T12:58:53.971Z,69.75
2017-09-19T13:01:23.131Z,70.29
2017-09-19T13:03:51.461Z,70.58
2017-09-19T13:06:20.547Z,71.76
2017-09-19T13:08:49.657Z,70.75
2017-09-19T13:11:19.980Z,72.21
2017-09-19T13:13:49.098Z,72.23
2017-09-19T13:16:17.420Z,72.09
2017-09-19T13:18:45.740Z,71.74
2017-09-19T13:21:14.858Z,71.84
2017-09-19T13:23:43.181Z,70.59
2017-09-19T13:26:11.502Z,68.93
2017-09-19T13:28:40.622Z,68.86
2017-09-19T13:31:26.714Z,69.61
2017-09-19T13:33:55.759Z,67.71
2017-09-19T13:36:24.084Z,64.76
2017-09-19T13:38:52.408Z,65.29
2017-09-19T13:41:20.760Z,62.21
2017-09-19T13:43:49.080Z,62.48
2017-09-19T13:46:17.409Z,61.47
2017-09-19T13:48:45.755Z,61.19
2017-09-19T13:51:14.842Z,64.60
2017-09-19T13:53:43.202Z,66.79
2017-09-19T13:56:11.527Z,69.40
2017-09-19T13:58:40.609Z,69.69
2017-09-19T14:01:09.728Z,71.54
2017-09-19T14:03:38.052Z,73.32
2017-09-19T14:06:06.374Z,71.32
2017-09-19T14:08:35.478Z,67.65
2017-09-19T14:11:04.566Z,68.46
2017-09-19T14:13:33.645Z,69.67
2017-09-19T14:16:01.992Z,69.90
2017-09-19T14:18:30.319Z,71.93
2017-09-19T14:20:59.512Z,73.05
2017-09-19T14:23:27.851Z,73.67
2017-09-19T14:25:56.167Z,70.51
2017-09-19T14:28:24.596Z,73.58
2017-09-19T14:30:52.937Z,74.81
2017-09-19T14:33:22.038Z,75.38
2017-09-19T14:35:51.146Z,73.13
2017-09-19T14:38:20.232Z,70.30
2017-09-19T14:40:49.316Z,70.79
2017-09-19T14:43:17.667Z,71.88
2017-09-19T14:45:45.990Z,71.20
2017-09-19T14:48:15.098Z,71.68
2017-09-19T14:50:44.217Z,69.88
2017-09-19T14:53:12.534Z,68.77
2017-09-19T14:55:40.890Z,69.62
2017-09-19T14:58:09.216Z,70.51
2017-09-19T15:00:37.547Z,72.22
2017-09-19T15:03:05.894Z,72.33
2017-09-19T15:05:34.978Z,71.77
2017-09-19T15:08:03.306Z,73.18
2017-09-19T15:10:31.653Z,71.15
2017-09-19T15:13:00.742Z,72.04
2017-09-19T15:15:29.826Z,73.68
2017-09-19T15:17:58.174Z,73.56
2017-09-19T15:20:26.498Z,73.14
2017-09-19T15:22:55.607Z,73.37
2017-09-19T15:25:24.694Z,73.04
2017-09-19T15:27:53.787Z,74.29
2017-09-19T15:30:22.904Z,74.45
2017-09-19T15:32:51.994Z,73.16
2017-09-19T15:35:22.352Z,75.68
2017-09-19T15:37:50.666Z,75.79
2017-09-19T15:40:18.982Z,76.37
2017-09-19T15:42:48.087Z,76.36
2017-09-19T15:45:17.165Z,77.57
2017-09-19T15:47:45.516Z,78.06
2017-09-19T15:50:13.931Z,78.95
2017-09-19T15:52:43.011Z,79.74
2017-09-19T15:55:11.355Z,79.65
2017-09-19T15:57:39.678Z,80.30
2017-09-19T16:00:08.010Z,80.33
2017-09-19T16:02:36.355Z,79.81
2017-09-19T16:05:05.449Z,79.92
2017-09-19T16:07:34.541Z,80.60
2017-09-19T16:10:03.653Z,79.37
2017-09-19T16:12:32.751Z,78.12
2017-09-19T16:15:01.834Z,76.75
2017-09-19T16:17:30.950Z,74.95
2017-09-19T16:20:00.042Z,74.43
2017-09-19T16:22:29.134Z,74.12
2017-09-19T16:24:58.244Z,73.87
2017-09-19T16:27:28.242Z,74.06
2017-09-19T16:29:57.331Z,73.24
2017-09-19T16:32:25.677Z,74.39
2017-09-19T16:34:54.012Z,75.25
2017-09-19T16:37:23.106Z,75.61
2017-09-19T16:39:52.232Z,75.13
2017-09-19T16:42:20.550Z,75.63
2017-09-19T16:44:48.880Z,76.26
2017-09-19T16:47:17.227Z,76.41
2017-09-19T16:49:45.555Z,77.67
2017-09-19T16:52:13.909Z,77.30
2017-09-19T16:54:43.011Z,78.08
2017-09-19T16:57:11.343Z,78.81
2017-09-19T16:59:39.698Z,79.43
2017-09-19T17:02:08.022Z,80.06
2017-09-19T17:04:36.370Z,80.97
2017-09-19T17:07:04.696Z,81.20
2017-09-19T17:09:33.795Z,82.17
2017-09-19T17:12:02.915Z,82.49
2017-09-19T17:14:31.262Z,82.53
2017-09-19T17:17:01.515Z,83.21
2017-09-19T17:19:31.703Z,84.14
2017-09-19T17:22:00.094Z,83.62
2017-09-19T17:24:28.450Z,83.29
2017-09-19T17:26:56.779Z,83.42
2017-09-19T17:29:26.118Z,83.69
2017-09-19T17:31:56.477Z,83.21
2017-09-19T17:34:24.865Z,83.68
2017-09-19T17:36:53.967Z,84.44
2017-09-19T17:39:24.051Z,85.01
2017-09-19T17:41:52.440Z,84.61
2017-09-19T17:44:20.760Z,85.69
2017-09-19T17:46:49.859Z,86.14
2017-09-19T17:49:18.978Z,86.18
2017-09-19T17:51:47.309Z,85.67
2017-09-19T17:54:15.665Z,85.40
2017-09-19T17:56:43.988Z,85.33
2017-09-19T17:59:13.071Z,85.21
2017-09-19T18:01:41.423Z,85.10
2017-09-19T18:04:09.755Z,85.13
2017-09-19T18:06:38.866Z,85.49
2017-09-19T18:09:07.199Z,86.14
2017-09-19T18:11:35.550Z,85.69
2017-09-19T18:14:03.867Z,85.42
2017-09-19T18:16:32.211Z,85.41
2017-09-19T18:19:00.530Z,86.08
2017-09-19T18:21:28.872Z,86.63
2017-09-19T18:23:57.191Z,86.34
2017-09-19T18:26:25.511Z,86.08
2017-09-19T18:28:53.855Z,86.20
2017-09-19T18:31:22.946Z,86.12
2017-09-19T18:33:51.291Z,85.93
2017-09-19T18:36:19.619Z,85.55
2017-09-19T18:38:48.706Z,85.55
2017-09-19T18:41:17.060Z,85.15
2017-09-19T18:43:45.382Z,84.87
2017-09-19T18:46:14.498Z,84.72
2017-09-19T18:48:42.823Z,84.71
2017-09-19T18:51:11.167Z,84.87
2017-09-19T18:53:39.554Z,85.18
2017-09-19T18:56:07.903Z,85.26
2017-09-19T18:58:36.991Z,85.27
2017-09-19T19:01:06.083Z,85.09
2017-09-19T19:03:34.427Z,84.91
2017-09-19T19:06:02.752Z,84.67
2017-09-19T19:08:31.858Z,84.68
2017-09-19T19:11:00.951Z,84.37
2017-09-19T19:13:30.062Z,83.95
2017-09-19T19:15:58.475Z,84.09
2017-09-19T19:18:26.790Z,84.96
2017-09-19T19:20:55.140Z,85.19
2017-09-19T19:23:24.222Z,85.30
2017-09-19T19:25:52.599Z,85.00
2017-09-19T19:28:20.919Z,85.33
2017-09-19T19:30:49.249Z,85.40
2017-09-19T19:33:17.643Z,86.10
2017-09-19T19:35:45.954Z,87.31
2017-09-19T19:38:14.288Z,87.99
2017-09-19T19:40:42.630Z,88.09
2017-09-19T19:43:10.962Z,88.15
2017-09-19T19:45:39.338Z,87.88
2017-09-19T19:48:07.678Z,87.96
2017-09-19T19:50:36.018Z,88.59
2017-09-19T19:53:04.351Z,88.86
2017-09-19T19:55:33.462Z,88.44
2017-09-19T19:58:01.787Z,87.92
2017-09-19T20:00:30.143Z,88.50
2017-09-19T20:02:58.467Z,87.98
2017-09-19T20:05:27.566Z,87.73
2017-09-19T20:07:55.918Z,87.57
2017-09-19T20:10:24.243Z,87.40
2017-09-19T20:12:53.360Z,88.54
2017-09-19T20:15:21.681Z,88.22
2017-09-19T20:17:50.006Z,88.11
2017-09-19T20:20:19.126Z,88.23
2017-09-19T20:22:47.449Z,88.22
2017-09-19T20:25:15.798Z,88.91
2017-09-19T20:27:44.126Z,89.12
2017-09-19T20:30:13.222Z,88.64
2017-09-19T20:32:41.577Z,88.74
2017-09-19T20:35:10.882Z,89.11
2017-09-19T20:37:39.248Z,90.35
2017-09-19T20:40:07.575Z,90.05
2017-09-19T20:42:36.662Z,88.99
2017-09-19T20:45:05.778Z,88.97
2017-09-19T20:47:34.875Z,88.44
2017-09-19T20:50:04.009Z,88.06
2017-09-19T20:52:32.330Z,88.56
2017-09-19T20:55:01.430Z,91.04
2017-09-19T20:57:29.775Z,91.88
2017-09-19T20:59:58.094Z,92.25
2017-09-19T21:02:26.524Z,91.71
2017-09-19T21:05:00.318Z,91.01
2017-09-19T21:07:34.146Z,90.23
2017-09-19T21:10:08.483Z,89.93
2017-09-19T21:12:42.306Z,90.71
2017-09-19T21:15:16.186Z,90.33
2017-09-19T21:17:49.962Z,90.02
2017-09-19T21:20:18.234Z,90.28
2017-09-19T21:22:47.322Z,90.58
2017-09-19T21:25:16.437Z,91.02
2017-09-19T21:27:45.698Z,91.33
2017-09-19T21:30:14.083Z,92.16
2017-09-19T21:32:42.410Z,92.22
2017-09-19T21:35:10.740Z,92.33
2017-09-19T21:37:39.090Z,91.64
2017-09-19T21:40:07.424Z,90.95
2017-09-19T21:42:36.542Z,89.88
2017-09-19T21:45:04.884Z,89.96
2017-09-19T21:47:33.212Z,89.94
2017-09-19T21:50:01.558Z,90.27
2017-09-19T21:52:31.417Z,90.86
2017-09-19T21:54:59.841Z,91.67
2017-09-19T21:57:28.258Z,93.11
2017-09-19T21:59:57.078Z,93.55
2017-09-19T22:02:26.244Z,92.80
2017-09-19T22:04:54.623Z,93.71
2017-09-19T22:07:23.858Z,93.49
2017-09-19T22:09:52.187Z,95.02
2017-09-19T22:12:21.302Z,95.94
2017-09-19T22:14:50.394Z,96.36
2017-09-19T22:17:19.522Z,95.43
2017-09-19T22:19:48.635Z,94.40
2017-09-19T22:22:17.183Z,94.33
2017-09-19T22:24:45.513Z,94.18
2017-09-19T22:27:13.850Z,93.82
2017-09-19T22:29:42.201Z,93.08
2017-09-19T22:32:10.534Z,93.00
2017-09-19T22:34:38.864Z,92.78
2017-09-19T22:37:07.986Z,92.68
2017-09-19T22:39:36.310Z,91.70
2017-09-19T22:42:04.639Z,92.10
2017-09-19T22:44:32.989Z,91.96
2017-09-19T22:47:01.307Z,92.41
2017-09-19T22:49:29.627Z,91.53
2017-09-19T22:51:57.979Z,92.27
2017-09-19T22:54:26.313Z,92.79
2017-09-19T22:56:54.674Z,92.33
2017-09-19T22:59:22.995Z,92.21
2017-09-19T23:01:52.090Z,92.70
2017-09-19T23:04:21.196Z,93.50
2017-09-19T23:06:49.519Z,92.82
2017-09-19T23:09:18.603Z,92.33
2017-09-19T23:11:46.942Z,91.72
2017-09-19T23:14:16.023Z,92.25
2017-09-19T23:16:44.344Z,91.57
2017-09-19T23:19:12.690Z,91.24
2017-09-19T23:21:41.779Z,91.65
2017-09-19T23:24:10.103Z,92.38
2017-09-19T23:26:38.442Z,93.95
2017-09-19T23:29:07.532Z,94.37
2017-09-19T23:31:35.877Z,94.38
2017-09-19T23:34:04.196Z,94.08
2017-09-19T23:36:32.527Z,93.13
2017-09-19T23:39:00.867Z,92.96
2017-09-19T23:41:29.946Z,92.77
2017-09-19T23:43:58.281Z,91.96
2017-09-19T23:46:26.600Z,91.94
2017-09-19T23:48:54.943Z,91.92
2017-09-19T23:51:23.258Z,91.46
2017-09-19T23:53:51.604Z,91.46
2017-09-19T23:56:19.914Z,92.67
2017-09-19T23:58:48.230Z,92.22
